Time;durP1;ratioP1;P1;durP2;ratioP2;P2;SDS_P1;SDS_P2;PMS_P1;PMS_P2;Temp;Humidity;BMP_temperature;BMP_pressure;BME280_temperature;BME280_humidity;BME280_pressure;Samples;Min_cycle;Max_cycle;Signal;HPM_P1;HPM_P2
2021/10/07 00:01:58;;;;;;;1.45;0.60;;;;;;;;;;5067401;28;20067;-62
2021/10/07 00:04:25;;;;;;;0.85;0.40;;;;;;;;;;5068287;28;20112;-61
2021/10/07 00:06:52;;;;;;;1.67;0.57;;;;;;;;;;5067062;28;20607;-61
2021/10/07 00:09:19;;;;;;;1.23;0.60;;;;;;;;;;5049489;28;20025;-61
2021/10/07 00:11:45;;;;;;;1.63;0.90;;;;;;;;;;5048430;28;20108;-62
2021/10/07 00:14:11;;;;;;;2.50;0.55;;;;;;;;;;5048750;28;20112;-61
2021/10/07 00:16:37;;;;;;;1.25;0.50;;;;;;;;;;5048382;28;20424;-61
2021/10/07 00:19:03;;;;;;;1.08;0.60;;;;;;;;;;5066474;28;20032;-61
2021/10/07 00:21:29;;;;;;;0.77;0.60;;;;;;;;;;5068176;28;20029;-61
2021/10/07 00:24:08;;;;;;;1.00;0.47;;;;;;;;;;5068275;28;20085;-61
2021/10/07 00:26:39;;;;;;;0.77;0.60;;;;;;;;;;5068097;28;20021;-61
2021/10/07 00:29:54;;;;;;;0.50;0.50;;;;;;;;;;5067407;28;20127;-61
2021/10/07 00:31:56;;;;;;;0.73;0.50;;;;;;;;;;5065999;28;20407;-61
2021/10/07 00:39:30;;;;;;;1.55;0.90;;;;;;;;;;5048071;28;20384;-61
2021/10/07 00:41:56;;;;;;;0.60;0.50;;;;;;;;;;5048108;28;20033;-61
2021/10/07 00:44:22;;;;;;;0.82;0.60;;;;;;;;;;5047964;28;20025;-61
2021/10/07 00:46:51;;;;;;;1.10;0.50;;;;;;;;;;5048555;28;20020;-61
2021/10/07 00:49:18;;;;;;;1.48;0.60;;;;;;;;;;5066240;28;20107;-61
2021/10/07 00:51:44;;;;;;;1.02;0.47;;;;;;;;;;5067700;28;20028;-61
2021/10/07 00:54:11;;;;;;;1.60;0.50;;;;;;;;;;5067991;28;20101;-61
2021/10/07 00:56:38;;;;;;;2.20;0.60;;;;;;;;;;5067292;28;20028;-62
2021/10/07 00:59:04;;;;;;;0.60;0.60;;;;;;;;;;5066310;28;20039;-61
2021/10/07 01:01:30;;;;;;;0.75;0.70;;;;;;;;;;5067313;28;20032;-61
2021/10/07 01:03:56;;;;;;;3.15;0.70;;;;;;;;;;5067170;28;20024;-61
2021/10/07 01:06:23;;;;;;;1.05;0.60;;;;;;;;;;5067355;28;20017;-61
2021/10/07 01:08:49;;;;;;;0.95;0.60;;;;;;;;;;5051517;28;20043;-61
2021/10/07 01:11:16;;;;;;;0.85;0.57;;;;;;;;;;5047837;28;20185;-61
2021/10/07 01:13:42;;;;;;;1.35;0.80;;;;;;;;;;5047101;28;20062;-61
2021/10/07 01:16:09;;;;;;;1.13;0.70;;;;;;;;;;5047289;28;20032;-61
2021/10/07 01:18:35;;;;;;;1.25;0.80;;;;;;;;;;5059415;28;20388;-61
2021/10/07 01:21:02;;;;;;;1.17;0.57;;;;;;;;;;5061048;28;20100;-62
2021/10/07 01:23:28;;;;;;;1.20;0.70;;;;;;;;;;5047187;28;20042;-62
2021/10/07 01:25:54;;;;;;;2.25;0.80;;;;;;;;;;5047104;28;20021;-61
2021/10/07 01:28:20;;;;;;;1.50;0.95;;;;;;;;;;5049390;28;20388;-62
2021/10/07 01:30:47;;;;;;;1.90;0.70;;;;;;;;;;5047725;28;20028;-62
2021/10/07 01:33:13;;;;;;;1.65;0.85;;;;;;;;;;5046711;28;20056;-62
2021/10/07 01:35:39;;;;;;;1.48;0.68;;;;;;;;;;5047078;28;20040;-61
2021/10/07 01:38:05;;;;;;;1.30;0.80;;;;;;;;;;5047166;28;20025;-61
2021/10/07 01:40:31;;;;;;;0.90;0.70;;;;;;;;;;5046912;28;20029;-61
2021/10/07 01:42:57;;;;;;;3.90;0.75;;;;;;;;;;5046764;28;20087;-61
2021/10/07 01:45:24;;;;;;;1.20;0.90;;;;;;;;;;5063967;28;20048;-61
2021/10/07 01:47:50;;;;;;;1.80;0.70;;;;;;;;;;5066461;28;20033;-61
2021/10/07 01:50:16;;;;;;;1.20;0.75;;;;;;;;;;5063718;28;20032;-61
2021/10/07 01:52:42;;;;;;;1.45;0.80;;;;;;;;;;5054400;28;20067;-61
2021/10/07 01:55:09;;;;;;;2.15;0.90;;;;;;;;;;5046601;28;20078;-62
2021/10/07 01:57:36;;;;;;;2.72;0.85;;;;;;;;;;5046428;28;20029;-61
2021/10/07 02:00:02;;;;;;;1.02;0.70;;;;;;;;;;5055502;28;20024;-61
2021/10/07 02:02:28;;;;;;;1.00;0.80;;;;;;;;;;5056493;28;20121;-62
2021/10/07 02:04:54;;;;;;;2.13;0.85;;;;;;;;;;5046302;28;20033;-62
2021/10/07 02:07:20;;;;;;;1.60;0.80;;;;;;;;;;5047113;28;20514;-61
2021/10/07 02:09:47;;;;;;;3.25;1.20;;;;;;;;;;5046860;28;20036;-61
2021/10/07 02:12:13;;;;;;;1.23;0.82;;;;;;;;;;5046244;28;20036;-61
2021/10/07 02:14:39;;;;;;;2.33;1.08;;;;;;;;;;5046132;28;20067;-61
2021/10/07 02:17:05;;;;;;;1.02;0.68;;;;;;;;;;5045338;28;20654;-61
2021/10/07 02:19:31;;;;;;;2.75;0.85;;;;;;;;;;5046077;28;20033;-61
2021/10/07 02:21:57;;;;;;;1.75;0.90;;;;;;;;;;5046100;28;20625;-62
2021/10/07 02:24:23;;;;;;;2.22;0.98;;;;;;;;;;5046169;28;20048;-61
2021/10/07 02:26:49;;;;;;;2.47;1.25;;;;;;;;;;5047074;28;20033;-61
2021/10/07 02:29:15;;;;;;;2.58;1.15;;;;;;;;;;5046203;28;20611;-61
2021/10/07 02:31:41;;;;;;;1.25;0.70;;;;;;;;;;5045855;28;20407;-61
2021/10/07 02:34:07;;;;;;;1.85;0.77;;;;;;;;;;5065083;28;20033;-61
2021/10/07 02:36:33;;;;;;;2.58;0.90;;;;;;;;;;5059435;28;20628;-61
2021/10/07 02:39:00;;;;;;;1.45;0.90;;;;;;;;;;5046233;28;20537;-61
2021/10/07 02:41:26;;;;;;;1.70;1.08;;;;;;;;;;5045976;28;20028;-61
2021/10/07 02:43:52;;;;;;;1.88;0.98;;;;;;;;;;5045592;28;20032;-61
2021/10/07 02:46:19;;;;;;;2.38;1.10;;;;;;;;;;5046841;28;20049;-61
2021/10/07 02:48:45;;;;;;;1.15;0.80;;;;;;;;;;5046042;28;20025;-61
2021/10/07 02:51:11;;;;;;;1.50;0.90;;;;;;;;;;5045923;28;20025;-61
2021/10/07 02:53:38;;;;;;;2.17;1.10;;;;;;;;;;5046005;28;20035;-62
2021/10/07 02:56:04;;;;;;;2.20;0.95;;;;;;;;;;5046125;28;20040;-61
2021/10/07 02:58:30;;;;;;;1.98;1.45;;;;;;;;;;5045243;28;20036;-61
2021/10/07 03:00:57;;;;;;;1.52;0.90;;;;;;;;;;5046085;28;20033;-61
2021/10/07 03:03:23;;;;;;;2.15;0.90;;;;;;;;;;5046832;28;20033;-61
2021/10/07 03:05:49;;;;;;;1.55;0.80;;;;;;;;;;5044997;28;20079;-61
2021/10/07 03:08:15;;;;;;;2.20;1.15;;;;;;;;;;5046086;28;20027;-61
2021/10/07 03:10:41;;;;;;;1.33;0.90;;;;;;;;;;5045832;28;20429;-61
2021/10/07 03:13:07;;;;;;;2.03;0.80;;;;;;;;;;5045781;28;20033;-61
2021/10/07 03:15:33;;;;;;;1.88;0.80;;;;;;;;;;5045607;28;20036;-61
2021/10/07 03:17:59;;;;;;;4.75;1.13;;;;;;;;;;5045887;28;20519;-61
2021/10/07 03:20:25;;;;;;;2.40;0.93;;;;;;;;;;5045324;28;20452;-61
2021/10/07 03:22:51;;;;;;;0.82;0.60;;;;;;;;;;5045490;28;20103;-61
2021/10/07 03:25:17;;;;;;;1.77;1.10;;;;;;;;;;5046248;28;20117;-61
2021/10/07 03:27:43;;;;;;;1.52;0.88;;;;;;;;;;5044625;28;20036;-61
2021/10/07 03:30:10;;;;;;;2.47;0.95;;;;;;;;;;5045707;28;20537;-61
2021/10/07 03:32:36;;;;;;;1.60;0.70;;;;;;;;;;5048147;28;20027;-61
2021/10/07 03:35:02;;;;;;;1.08;0.65;;;;;;;;;;5049171;28;20036;-61
2021/10/07 03:37:28;;;;;;;1.52;0.70;;;;;;;;;;5049000;28;20556;-61
2021/10/07 03:39:55;;;;;;;0.98;0.60;;;;;;;;;;5049316;28;20082;-61
2021/10/07 03:42:21;;;;;;;0.70;0.60;;;;;;;;;;5049487;28;20480;-61
2021/10/07 03:44:47;;;;;;;1.85;0.88;;;;;;;;;;5049371;28;20124;-61
2021/10/07 03:47:13;;;;;;;0.98;0.70;;;;;;;;;;5049070;28;20017;-61
2021/10/07 03:49:39;;;;;;;1.23;0.85;;;;;;;;;;5048787;28;20474;-61
2021/10/07 03:52:05;;;;;;;2.33;0.93;;;;;;;;;;5049114;28;20529;-61
2021/10/07 03:54:31;;;;;;;2.03;0.68;;;;;;;;;;5048763;28;20078;-61
2021/10/07 03:56:57;;;;;;;0.95;0.57;;;;;;;;;;5049160;28;20039;-61
2021/10/07 03:59:23;;;;;;;0.65;0.43;;;;;;;;;;5048303;28;20511;-61
2021/10/07 04:01:49;;;;;;;1.63;0.55;;;;;;;;;;5049226;28;20524;-61
2021/10/07 04:04:15;;;;;;;1.52;0.60;;;;;;;;;;5048515;28;20423;-61
2021/10/07 04:06:41;;;;;;;0.68;0.57;;;;;;;;;;5048640;28;20445;-61
2021/10/07 04:09:07;;;;;;;0.73;0.52;;;;;;;;;;5048676;28;20513;-61
2021/10/07 04:11:34;;;;;;;2.42;0.90;;;;;;;;;;5048385;28;20049;-61
2021/10/07 04:14:00;;;;;;;1.02;0.77;;;;;;;;;;5048392;28;20112;-61
2021/10/07 04:16:26;;;;;;;1.25;0.80;;;;;;;;;;5048237;28;20025;-61
2021/10/07 04:18:52;;;;;;;1.65;0.93;;;;;;;;;;5062830;28;20035;-61
2021/10/07 04:21:18;;;;;;;1.58;1.00;;;;;;;;;;5067233;28;20028;-61
2021/10/07 04:23:44;;;;;;;1.85;1.10;;;;;;;;;;5066088;28;20040;-61
2021/10/07 04:26:10;;;;;;;2.33;1.25;;;;;;;;;;5054211;28;20024;-61
2021/10/07 04:28:36;;;;;;;4.40;1.10;;;;;;;;;;5068346;28;20024;-61
2021/10/07 04:31:03;;;;;;;1.10;0.80;;;;;;;;;;5068059;28;20028;-60
2021/10/07 04:33:29;;;;;;;1.67;0.93;;;;;;;;;;5067922;28;20072;-61
2021/10/07 04:35:55;;;;;;;3.65;1.30;;;;;;;;;;5051648;28;20387;-61
2021/10/07 04:38:21;;;;;;;1.45;1.10;;;;;;;;;;5048450;28;20108;-61
2021/10/07 04:40:47;;;;;;;3.58;2.03;;;;;;;;;;5048360;28;20017;-61
2021/10/07 04:43:13;;;;;;;5.15;2.38;;;;;;;;;;5047996;28;20033;-61
2021/10/07 04:45:40;;;;;;;4.35;2.33;;;;;;;;;;5047425;28;20052;-61
2021/10/07 04:48:06;;;;;;;4.28;2.22;;;;;;;;;;5047972;28;20095;-61
2021/10/07 04:50:32;;;;;;;4.07;2.30;;;;;;;;;;5047787;28;20027;-61
2021/10/07 04:52:58;;;;;;;3.55;2.10;;;;;;;;;;5047659;28;20025;-61
2021/10/07 04:55:24;;;;;;;3.05;1.95;;;;;;;;;;5046046;28;20039;-61
2021/10/07 04:57:50;;;;;;;2.25;1.50;;;;;;;;;;5048697;28;20037;-61
2021/10/07 05:00:16;;;;;;;4.50;1.80;;;;;;;;;;5047330;28;20619;-61
2021/10/07 05:02:45;;;;;;;2.60;1.65;;;;;;;;;;5046908;28;20029;-61
2021/10/07 05:05:11;;;;;;;3.72;1.98;;;;;;;;;;5047240;28;20033;-61
2021/10/07 05:07:39;;;;;;;3.65;2.53;;;;;;;;;;5047391;28;20025;-61
2021/10/07 05:10:06;;;;;;;5.28;2.20;;;;;;;;;;5047676;28;20075;-61
2021/10/07 05:12:32;;;;;;;4.35;2.45;;;;;;;;;;5056802;28;20028;-61
2021/10/07 05:14:58;;;;;;;2.38;1.67;;;;;;;;;;5067341;28;20057;-61
2021/10/07 05:17:24;;;;;;;3.40;1.95;;;;;;;;;;5057469;28;20411;-61
2021/10/07 05:19:51;;;;;;;3.40;1.52;;;;;;;;;;5062011;28;20039;-61
2021/10/07 05:22:17;;;;;;;2.80;1.48;;;;;;;;;;5059247;28;20556;-61
2021/10/07 05:24:43;;;;;;;2.47;1.20;;;;;;;;;;5046765;28;20503;-61
2021/10/07 05:27:09;;;;;;;3.63;1.50;;;;;;;;;;5047093;28;20630;-61
2021/10/07 05:29:35;;;;;;;4.10;1.35;;;;;;;;;;5048475;28;20017;-61
2021/10/07 05:32:01;;;;;;;2.78;1.15;;;;;;;;;;5066987;28;20024;-61
2021/10/07 05:34:27;;;;;;;2.55;1.27;;;;;;;;;;5066774;28;20024;-61
2021/10/07 05:36:53;;;;;;;1.98;1.08;;;;;;;;;;5067049;28;20036;-61
2021/10/07 05:39:19;;;;;;;2.13;1.15;;;;;;;;;;5066341;28;20511;-61
2021/10/07 05:41:45;;;;;;;1.85;0.90;;;;;;;;;;5046185;28;20036;-61
2021/10/07 05:44:12;;;;;;;1.48;1.00;;;;;;;;;;5046375;28;20044;-61
2021/10/07 05:46:38;;;;;;;2.35;1.38;;;;;;;;;;5055505;28;20028;-61
2021/10/07 05:49:04;;;;;;;2.28;1.15;;;;;;;;;;5048704;28;20805;-61
2021/10/07 05:51:31;;;;;;;1.30;0.98;;;;;;;;;;5051351;28;20032;-62
2021/10/07 05:53:57;;;;;;;1.75;0.90;;;;;;;;;;5047541;28;20392;-62
2021/10/07 05:56:23;;;;;;;2.05;1.15;;;;;;;;;;5046426;28;20782;-61
2021/10/07 05:58:50;;;;;;;2.00;0.93;;;;;;;;;;5051637;28;20032;-61
2021/10/07 06:01:16;;;;;;;3.63;1.23;;;;;;;;;;5060786;28;20408;-61
2021/10/07 06:03:42;;;;;;;2.05;1.05;;;;;;;;;;5066189;28;20025;-61
2021/10/07 06:06:08;;;;;;;1.92;0.93;;;;;;;;;;5052264;28;20056;-61
2021/10/07 06:08:36;;;;;;;2.03;0.90;;;;;;;;;;5048135;28;20029;-61
2021/10/07 06:11:02;;;;;;;2.10;1.10;;;;;;;;;;5046783;28;20071;-61
2021/10/07 06:13:29;;;;;;;2.03;0.80;;;;;;;;;;5053740;28;20032;-61
2021/10/07 06:15:55;;;;;;;2.40;1.05;;;;;;;;;;5065368;28;20029;-61
2021/10/07 06:18:21;;;;;;;2.95;0.85;;;;;;;;;;5046476;28;20104;-61
2021/10/07 06:20:48;;;;;;;1.77;0.95;;;;;;;;;;5047019;28;20036;-61
2021/10/07 06:23:14;;;;;;;2.03;1.00;;;;;;;;;;5056261;28;20062;-61
2021/10/07 06:25:40;;;;;;;1.08;0.82;;;;;;;;;;5055326;28;20036;-61
2021/10/07 06:28:07;;;;;;;1.85;0.80;;;;;;;;;;5051279;28;20021;-61
2021/10/07 06:30:34;;;;;;;1.88;0.77;;;;;;;;;;5048507;28;20095;-61
2021/10/07 06:33:00;;;;;;;1.38;0.80;;;;;;;;;;5046191;28;20032;-61
2021/10/07 06:35:27;;;;;;;1.27;0.63;;;;;;;;;;5045466;28;20078;-61
2021/10/07 06:37:53;;;;;;;0.63;0.63;;;;;;;;;;5046364;28;20025;-61
2021/10/07 06:40:19;;;;;;;1.88;0.82;;;;;;;;;;5061021;28;20733;-61
2021/10/07 06:42:45;;;;;;;1.92;0.80;;;;;;;;;;5066206;28;20070;-61
2021/10/07 06:45:12;;;;;;;1.13;0.70;;;;;;;;;;5064128;28;20119;-61
2021/10/07 06:47:39;;;;;;;2.00;0.70;;;;;;;;;;5065300;28;20021;-61
2021/10/07 06:50:06;;;;;;;3.20;0.80;;;;;;;;;;5056731;28;20032;-61
2021/10/07 06:52:32;;;;;;;0.60;0.60;;;;;;;;;;5064538;28;20503;-61
2021/10/07 06:54:59;;;;;;;0.85;0.77;;;;;;;;;;5047637;28;20086;-61
2021/10/07 06:57:26;;;;;;;1.77;0.95;;;;;;;;;;5044511;28;20025;-61
2021/10/07 06:59:52;;;;;;;1.75;0.60;;;;;;;;;;5048053;28;20027;-62
2021/10/07 07:02:18;;;;;;;0.40;0.40;;;;;;;;;;5049268;28;20016;-62
2021/10/07 07:04:44;;;;;;;1.00;0.82;;;;;;;;;;5053232;28;20033;-61
2021/10/07 07:07:10;;;;;;;1.08;0.70;;;;;;;;;;5047819;28;20032;-61
2021/10/07 07:09:36;;;;;;;1.38;0.90;;;;;;;;;;5055190;28;20029;-61
2021/10/07 07:12:03;;;;;;;1.58;0.98;;;;;;;;;;5051694;28;20025;-62
2021/10/07 07:14:32;;;;;;;0.80;0.77;;;;;;;;;;5053947;28;20055;-61
2021/10/07 07:16:58;;;;;;;1.80;1.20;;;;;;;;;;5069572;28;20500;-61
2021/10/07 07:19:24;;;;;;;2.40;1.17;;;;;;;;;;5055910;28;20486;-61
2021/10/07 07:21:50;;;;;;;2.70;0.93;;;;;;;;;;5067645;28;20080;-61
2021/10/07 07:24:17;;;;;;;2.05;0.90;;;;;;;;;;5058626;28;20039;-61
2021/10/07 07:26:43;;;;;;;1.45;0.85;;;;;;;;;;5058425;28;20028;-61
2021/10/07 07:29:09;;;;;;;1.25;0.90;;;;;;;;;;5066417;28;20570;-61
2021/10/07 07:31:36;;;;;;;1.95;0.82;;;;;;;;;;5069726;28;20507;-60
2021/10/07 07:34:02;;;;;;;1.50;1.05;;;;;;;;;;5070666;28;20521;-60
2021/10/07 07:36:28;;;;;;;1.27;0.75;;;;;;;;;;5069371;28;20027;-60
2021/10/07 07:38:54;;;;;;;2.88;0.80;;;;;;;;;;5067887;28;20024;-61
2021/10/07 07:41:21;;;;;;;1.15;0.63;;;;;;;;;;5064195;28;20033;-61
2021/10/07 07:43:47;;;;;;;1.25;0.80;;;;;;;;;;5063864;28;20036;-61
2021/10/07 07:46:17;;;;;;;1.75;0.90;;;;;;;;;;5069570;28;20024;-61
2021/10/07 07:48:44;;;;;;;1.85;0.65;;;;;;;;;;5058672;28;20025;-61
2021/10/07 07:51:10;;;;;;;1.55;0.80;;;;;;;;;;5049518;28;20029;-61
2021/10/07 07:53:36;;;;;;;3.08;0.80;;;;;;;;;;5064900;28;20616;-61
2021/10/07 07:56:03;;;;;;;0.75;0.60;;;;;;;;;;5070224;28;20036;-62
2021/10/07 07:58:29;;;;;;;1.50;0.80;;;;;;;;;;5050004;28;20515;-62
2021/10/07 08:00:55;;;;;;;1.85;0.63;;;;;;;;;;5048284;28;20382;-62
2021/10/07 08:03:22;;;;;;;1.02;0.60;;;;;;;;;;5054810;28;20609;-62
2021/10/07 08:05:48;;;;;;;1.58;0.70;;;;;;;;;;5060674;28;20032;-62
2021/10/07 08:08:14;;;;;;;0.52;0.52;;;;;;;;;;5054675;28;20025;-62
2021/10/07 08:10:40;;;;;;;1.05;0.60;;;;;;;;;;5048238;28;20029;-62
2021/10/07 08:13:06;;;;;;;0.75;0.65;;;;;;;;;;5056634;28;20020;-62
2021/10/07 08:15:32;;;;;;;0.40;0.40;;;;;;;;;;5053641;28;20056;-62
2021/10/07 08:17:58;;;;;;;0.40;0.40;;;;;;;;;;5061510;28;20025;-62
2021/10/07 08:20:24;;;;;;;3.03;0.70;;;;;;;;;;5064435;28;20029;-61
2021/10/07 08:22:51;;;;;;;0.60;0.60;;;;;;;;;;5048288;28;20097;-62
2021/10/07 08:25:18;;;;;;;1.40;0.70;;;;;;;;;;5051982;28;20124;-62
2021/10/07 08:27:44;;;;;;;1.95;0.88;;;;;;;;;;5048210;28;20393;-62
2021/10/07 08:30:12;;;;;;;0.85;0.60;;;;;;;;;;5066075;28;20562;-62
2021/10/07 08:32:38;;;;;;;2.20;0.70;;;;;;;;;;5060215;28;20021;-62
2021/10/07 08:35:04;;;;;;;3.53;0.95;;;;;;;;;;5053381;28;20558;-62
2021/10/07 08:37:33;;;;;;;2.28;1.02;;;;;;;;;;5067151;28;20115;-63
2021/10/07 08:39:59;;;;;;;2.60;1.00;;;;;;;;;;5061075;28;20507;-62
2021/10/07 08:42:26;;;;;;;3.22;1.10;;;;;;;;;;5066593;28;20182;-63
2021/10/07 08:44:52;;;;;;;2.33;0.90;;;;;;;;;;5066247;28;20050;-62
2021/10/07 08:47:19;;;;;;;1.92;1.25;;;;;;;;;;5066461;28;20090;-63
2021/10/07 08:49:46;;;;;;;1.52;0.70;;;;;;;;;;5066217;28;20111;-63
2021/10/07 08:52:12;;;;;;;2.03;0.98;;;;;;;;;;5055404;28;20484;-63
2021/10/07 08:54:38;;;;;;;1.80;0.77;;;;;;;;;;5049504;28;20020;-63
2021/10/07 08:57:05;;;;;;;1.40;0.80;;;;;;;;;;5056846;28;20102;-62
2021/10/07 08:59:33;;;;;;;1.35;0.60;;;;;;;;;;5067572;28;20549;-63
2021/10/07 09:02:01;;;;;;;1.25;0.80;;;;;;;;;;5051624;28;20025;-62
2021/10/07 09:04:28;;;;;;;0.63;0.60;;;;;;;;;;5046447;28;20046;-62
2021/10/07 09:07:06;;;;;;;0.75;0.60;;;;;;;;;;5050126;28;20027;-62
2021/10/07 09:09:33;;;;;;;0.70;0.60;;;;;;;;;;5049712;28;20033;-63
2021/10/07 09:12:00;;;;;;;0.80;0.50;;;;;;;;;;5046787;28;20025;-63
2021/10/07 09:14:30;;;;;;;0.50;0.50;;;;;;;;;;5060691;28;20396;-59
2021/10/07 09:16:57;;;;;;;0.50;0.45;;;;;;;;;;5058003;28;20051;-59
2021/10/07 09:19:37;;;;;;;1.15;0.60;;;;;;;;;;5050308;28;20104;-59
2021/10/07 09:22:16;;;;;;;1.33;0.60;;;;;;;;;;5058814;28;20024;-59
2021/10/07 09:24:49;;;;;;;0.52;0.40;;;;;;;;;;5046835;28;20500;-59
2021/10/07 09:27:15;;;;;;;1.77;0.53;;;;;;;;;;5047870;28;20032;-59
2021/10/07 09:29:43;;;;;;;0.45;0.45;;;;;;;;;;5062594;28;20259;-59
2021/10/07 09:32:10;;;;;;;2.67;0.68;;;;;;;;;;5067130;28;20715;-59
2021/10/07 09:34:49;;;;;;;0.50;0.50;;;;;;;;;;5053331;28;20044;-59
2021/10/07 09:37:35;;;;;;;1.23;0.60;;;;;;;;;;5066934;28;20124;-59
2021/10/07 09:40:07;;;;;;;2.70;1.00;;;;;;;;;;5066061;28;20029;-58
2021/10/07 09:42:34;;;;;;;2.08;0.90;;;;;;;;;;5050586;28;20090;-59
2021/10/07 09:45:04;;;;;;;1.35;0.80;;;;;;;;;;5044231;28;20516;-60
2021/10/07 09:47:34;;;;;;;1.77;1.10;;;;;;;;;;5045451;28;20419;-59
2021/10/07 09:50:11;;;;;;;1.38;1.10;;;;;;;;;;5055051;28;20545;-59
2021/10/07 09:52:38;;;;;;;2.70;1.13;;;;;;;;;;5057053;28;20531;-58
2021/10/07 09:55:10;;;;;;;2.42;1.00;;;;;;;;;;5046992;28;20029;-59
2021/10/07 09:57:47;;;;;;;1.42;0.85;;;;;;;;;;5046321;28;20127;-59
2021/10/07 10:00:13;;;;;;;2.17;1.00;;;;;;;;;;5058442;28;20095;-58
2021/10/07 10:02:40;;;;;;;3.13;1.50;;;;;;;;;;5046320;28;20113;-59
2021/10/07 10:05:06;;;;;;;2.13;1.63;;;;;;;;;;5045101;28;20036;-58
2021/10/07 10:07:33;;;;;;;2.72;1.40;;;;;;;;;;5045767;28;20025;-59
2021/10/07 10:09:59;;;;;;;3.70;1.63;;;;;;;;;;5055818;28;20060;-59
2021/10/07 10:12:25;;;;;;;2.33;1.40;;;;;;;;;;5062329;28;20075;-59
2021/10/07 10:14:53;;;;;;;1.45;1.05;;;;;;;;;;5049379;28;20068;-59
2021/10/07 10:17:21;;;;;;;2.15;0.95;;;;;;;;;;5054169;28;20119;-58
2021/10/07 10:19:49;;;;;;;1.13;0.80;;;;;;;;;;5047504;28;20032;-58
2021/10/07 10:22:15;;;;;;;1.77;0.90;;;;;;;;;;5062654;28;20097;-58
2021/10/07 10:24:42;;;;;;;1.90;0.90;;;;;;;;;;5066112;28;20036;-59
2021/10/07 10:27:08;;;;;;;2.35;0.80;;;;;;;;;;5066444;28;20035;-58
2021/10/07 10:29:34;;;;;;;2.75;0.95;;;;;;;;;;5055178;28;20075;-59
2021/10/07 10:32:03;;;;;;;0.93;0.57;;;;;;;;;;5046603;28;20032;-58
2021/10/07 10:34:37;;;;;;;1.40;0.60;;;;;;;;;;5044202;28;20036;-59
2021/10/07 10:37:04;;;;;;;1.42;0.60;;;;;;;;;;5054034;28;20028;-59
2021/10/07 10:39:33;;;;;;;1.92;0.63;;;;;;;;;;5053293;28;20044;-59
2021/10/07 10:42:01;;;;;;;2.45;0.57;;;;;;;;;;5049750;28;20088;-59
2021/10/07 10:44:27;;;;;;;1.20;0.60;;;;;;;;;;5049299;28;20578;-58
2021/10/07 10:47:08;;;;;;;0.82;0.63;;;;;;;;;;5070337;28;20380;-58
2021/10/07 10:49:37;;;;;;;2.13;0.75;;;;;;;;;;5058910;28;20050;-59
2021/10/07 10:52:26;;;;;;;1.13;0.60;;;;;;;;;;5069497;28;20032;-58
2021/10/07 10:55:10;;;;;;;2.47;0.50;;;;;;;;;;5049514;28;20053;-59
2021/10/07 10:57:39;;;;;;;1.63;0.70;;;;;;;;;;5065639;28;20028;-58
2021/10/07 11:00:16;;;;;;;1.30;0.65;;;;;;;;;;5055694;28;20083;-58
2021/10/07 11:02:43;;;;;;;2.45;0.63;;;;;;;;;;5050298;28;20480;-59
2021/10/07 11:05:12;;;;;;;1.25;0.50;;;;;;;;;;5059318;28;20041;-59
2021/10/07 11:07:39;;;;;;;1.08;0.57;;;;;;;;;;5069271;28;20047;-59
2021/10/07 11:10:12;;;;;;;0.93;0.50;;;;;;;;;;5057683;28;20543;-58
2021/10/07 11:12:49;;;;;;;1.17;0.55;;;;;;;;;;5049275;28;20021;-58
2021/10/07 11:15:15;;;;;;;0.40;0.40;;;;;;;;;;5064666;28;20032;-58
2021/10/07 11:17:42;;;;;;;0.77;0.55;;;;;;;;;;5050510;28;20029;-58
2021/10/07 11:20:09;;;;;;;1.33;0.70;;;;;;;;;;5049539;28;20043;-58
2021/10/07 11:22:35;;;;;;;0.68;0.68;;;;;;;;;;5048859;28;20108;-59
2021/10/07 11:25:01;;;;;;;1.27;0.50;;;;;;;;;;5055154;28;20064;-57
2021/10/07 11:27:36;;;;;;;1.10;0.65;;;;;;;;;;5067186;28;20035;-58
2021/10/07 11:30:04;;;;;;;1.13;0.50;;;;;;;;;;5069136;28;20035;-59
2021/10/07 11:32:31;;;;;;;1.88;0.63;;;;;;;;;;5067979;28;20405;-58
2021/10/07 11:34:58;;;;;;;2.20;0.68;;;;;;;;;;5069526;28;20028;-59
2021/10/07 11:37:24;;;;;;;1.88;0.85;;;;;;;;;;5064133;28;20555;-57
2021/10/07 11:39:50;;;;;;;1.65;0.52;;;;;;;;;;5068901;28;20279;-58
2021/10/07 11:42:36;;;;;;;1.58;0.50;;;;;;;;;;5068839;28;20051;-58
2021/10/07 11:45:16;;;;;;;2.05;0.70;;;;;;;;;;5067309;28;20032;-57
2021/10/07 11:47:42;;;;;;;3.30;0.60;;;;;;;;;;5066638;28;20165;-58
2021/10/07 11:50:14;;;;;;;1.30;0.60;;;;;;;;;;5068391;28;20036;-58
2021/10/07 11:52:41;;;;;;;0.52;0.50;;;;;;;;;;5058530;28;20050;-58
2021/10/07 11:55:07;;;;;;;0.77;0.52;;;;;;;;;;5047069;28;20033;-57
2021/10/07 11:57:33;;;;;;;1.48;0.68;;;;;;;;;;5059155;28;20423;-57
2021/10/07 12:00:00;;;;;;;1.00;0.70;;;;;;;;;;5050164;28;20112;-57
2021/10/07 12:02:26;;;;;;;1.63;0.60;;;;;;;;;;5047639;28;20060;-57
2021/10/07 12:05:12;;;;;;;2.15;1.00;;;;;;;;;;5048380;28;20033;-57
2021/10/07 12:07:38;;;;;;;3.97;1.42;;;;;;;;;;5047696;28;20059;-58
2021/10/07 12:10:05;;;;;;;2.63;1.27;;;;;;;;;;5047812;28;20381;-58
2021/10/07 12:12:31;;;;;;;1.83;1.00;;;;;;;;;;5047577;28;20447;-57
2021/10/07 12:14:57;;;;;;;2.00;1.10;;;;;;;;;;5048627;28;20547;-57
2021/10/07 12:17:24;;;;;;;1.30;0.75;;;;;;;;;;5062930;28;20060;-58
2021/10/07 12:19:51;;;;;;;0.65;0.60;;;;;;;;;;5064847;28;20080;-57
2021/10/07 12:22:39;;;;;;;1.20;0.80;;;;;;;;;;5047957;28;20024;-58
2021/10/07 12:25:06;;;;;;;0.98;0.75;;;;;;;;;;5047354;28;20037;-57
2021/10/07 12:27:33;;;;;;;0.60;0.60;;;;;;;;;;5062873;28;20047;-57
2021/10/07 12:30:08;;;;;;;0.40;0.40;;;;;;;;;;5067547;28;20032;-57
2021/10/07 12:32:34;;;;;;;1.55;0.70;;;;;;;;;;5067580;28;20047;-57
2021/10/07 12:35:01;;;;;;;0.85;0.70;;;;;;;;;;5059430;28;20375;-58
2021/10/07 12:37:28;;;;;;;0.77;0.60;;;;;;;;;;5068172;28;20108;-57
2021/10/07 12:39:56;;;;;;;1.35;0.63;;;;;;;;;;5067669;28;20086;-58
2021/10/07 12:42:24;;;;;;;1.10;0.60;;;;;;;;;;5049199;28;20037;-58
2021/10/07 12:44:54;;;;;;;0.88;0.50;;;;;;;;;;5048032;28;20031;-59
2021/10/07 12:47:21;;;;;;;2.00;0.98;;;;;;;;;;5047825;28;20499;-59
2021/10/07 12:49:49;;;;;;;1.45;0.60;;;;;;;;;;5047671;28;20029;-59
2021/10/07 12:52:24;;;;;;;1.25;0.68;;;;;;;;;;5048105;28;20027;-59
2021/10/07 12:54:57;;;;;;;1.27;0.50;;;;;;;;;;5047905;28;20086;-59
2021/10/07 12:57:39;;;;;;;0.50;0.50;;;;;;;;;;5047636;28;20049;-59
2021/10/07 13:00:07;;;;;;;0.77;0.50;;;;;;;;;;5055166;28;20032;-57
2021/10/07 13:02:34;;;;;;;0.50;0.50;;;;;;;;;;5066544;28;20025;-57
2021/10/07 13:05:13;;;;;;;0.75;0.50;;;;;;;;;;5063550;28;20033;-57
2021/10/07 13:07:39;;;;;;;1.58;0.57;;;;;;;;;;5050927;28;20058;-57
2021/10/07 13:10:05;;;;;;;0.50;0.40;;;;;;;;;;5049170;28;20528;-58
2021/10/07 13:12:31;;;;;;;1.08;0.60;;;;;;;;;;5047898;28;20166;-60
2021/10/07 13:14:58;;;;;;;0.40;0.40;;;;;;;;;;5048190;28;20029;-60
2021/10/07 13:17:25;;;;;;;0.68;0.47;;;;;;;;;;5047104;28;20056;-59
2021/10/07 13:19:51;;;;;;;3.80;0.50;;;;;;;;;;5047423;28;20029;-60
2021/10/07 13:22:17;;;;;;;0.52;0.45;;;;;;;;;;5047487;28;20036;-59
2021/10/07 13:30:42;;;;;;;0.63;0.50;;;;;;;;;;5104085;27;20154;-53
2021/10/07 13:33:08;;;;;;;0.52;0.30;;;;;;;;;;5104166;28;20057;-54
2021/10/07 13:35:35;;;;;;;0.75;0.35;;;;;;;;;;5104242;28;20020;-53
2021/10/07 13:38:02;;;;;;;0.30;0.30;;;;;;;;;;5104621;28;20085;-54
2021/10/07 13:40:28;;;;;;;0.30;0.30;;;;;;;;;;5104853;28;20016;-54
2021/10/07 13:42:58;;;;;;;0.70;0.40;;;;;;;;;;5103388;28;20124;-55
2021/10/07 13:45:24;;;;;;;0.85;0.40;;;;;;;;;;5104071;28;20035;-53
2021/10/07 13:47:58;;;;;;;0.32;0.32;;;;;;;;;;5103887;28;20024;-54
2021/10/07 13:50:24;;;;;;;0.63;0.50;;;;;;;;;;5104107;28;20680;-54
2021/10/07 13:52:50;;;;;;;0.43;0.40;;;;;;;;;;5103595;28;20470;-53
2021/10/07 13:55:17;;;;;;;0.68;0.40;;;;;;;;;;5103586;28;20036;-53
2021/10/07 13:57:43;;;;;;;1.05;0.30;;;;;;;;;;5102549;28;20111;-53
2021/10/07 14:00:10;;;;;;;0.30;0.30;;;;;;;;;;5103231;28;20028;-54
2021/10/07 14:02:36;;;;;;;0.30;0.30;;;;;;;;;;5103870;28;20051;-55
2021/10/07 14:05:02;;;;;;;0.70;0.40;;;;;;;;;;5103925;28;20028;-54
2021/10/07 14:07:28;;;;;;;0.75;0.40;;;;;;;;;;5104020;28;20714;-54
2021/10/07 14:09:54;;;;;;;0.68;0.40;;;;;;;;;;5103450;28;20490;-53
2021/10/07 14:12:20;;;;;;;0.80;0.40;;;;;;;;;;5103028;28;20077;-53
2021/10/07 14:14:46;;;;;;;0.47;0.40;;;;;;;;;;5103159;28;20049;-54
2021/10/07 14:17:12;;;;;;;1.77;0.60;;;;;;;;;;5103302;28;20436;-54
2021/10/07 14:19:38;;;;;;;1.25;0.52;;;;;;;;;;5103236;28;20409;-54
2021/10/07 14:22:04;;;;;;;0.50;0.50;;;;;;;;;;5102661;28;20027;-55
2021/10/07 14:24:30;;;;;;;0.60;0.60;;;;;;;;;;5103927;28;20387;-54
2021/10/07 14:26:56;;;;;;;0.80;0.50;;;;;;;;;;5102780;28;20077;-54
2021/10/07 14:29:23;;;;;;;1.27;0.50;;;;;;;;;;5101626;28;20659;-53
2021/10/07 14:31:49;;;;;;;0.60;0.50;;;;;;;;;;5103000;28;20030;-55
2021/10/07 14:34:15;;;;;;;0.82;0.50;;;;;;;;;;5102802;28;20096;-55
2021/10/07 14:36:42;;;;;;;0.43;0.40;;;;;;;;;;5102353;28;20482;-53
2021/10/07 14:39:08;;;;;;;0.88;0.47;;;;;;;;;;5102857;28;20031;-54
2021/10/07 14:41:34;;;;;;;1.45;0.80;;;;;;;;;;5092054;28;20561;-53
2021/10/07 14:44:00;;;;;;;0.82;0.60;;;;;;;;;;5089866;28;20024;-53
2021/10/07 14:46:26;;;;;;;0.70;0.70;;;;;;;;;;5088915;28;20035;-54
2021/10/07 14:48:52;;;;;;;2.20;0.80;;;;;;;;;;5088872;28;20052;-54
2021/10/07 14:51:19;;;;;;;2.30;1.10;;;;;;;;;;5099037;28;20118;-53
2021/10/07 14:53:45;;;;;;;1.80;0.73;;;;;;;;;;5109264;28;20024;-54
2021/10/07 14:56:12;;;;;;;0.70;0.60;;;;;;;;;;5099734;28;20032;-53